A Run — WDH6831 — position and weather

sailwx.info

Track history (hours):
 
Tides and Currents Weather Stations Pressure Air Temp Water Temp Dewpoint Dewpoint Depression Visibility Wind Speed Wind Dir Waves Ship Positions

A Run

Owner: Calore, Neil M, Green Cove Springs, FL. More information available from US FCC via Universal Licensing System and Coast Guard Vessel Documentation Center.

Last reported at 2018-May-10 13:25 UTC. Time now 2018-Jul-20 16:28 UTC.
Position N 39°00' W 076°23'.
Warning: this ship's position is months out of date.

Length 10 m.

Type: Sailing vessel. MMSI: 367642050.

Date/timePositionNaut miles runAvg speedWind from/ knotsBaromVisibWave heightAir tempDewpointWater temp
2018-May-10 13:25N 39°00' W 076°23'3 5.8
2018-May-10 12:57N 38°58' W 076°24'2 5.3
2018-May-10 12:29N 38°55' W 076°25'6 0.4
2018-May-09 23:10N 38°53' W 076°32'0 0.0
2018-May-09 22:55N 38°53' W 076°32'0 0.4
2018-May-09 22:30N 38°53' W 076°32'2 4.6
2018-May-09 22:00N 38°52' W 076°29'3 5.5
2018-May-09 21:30N 38°50' W 076°27'45 5.8
2018-May-09 13:45N 38°06' W 076°15'2 6.3
2018-May-09 13:30N 38°05' W 076°15'5 6.1
2018-May-09 12:40N 37°60' W 076°13'1 6.3
2018-May-09 12:30N 37°59' W 076°13'  
2018-May-05 19:19N 36°52' W 076°20'2 6.7
2018-May-05 18:59N 36°51' W 076°18'3 6.2
2018-May-05 18:30N 36°48' W 076°18'3 4.9
2018-May-05 17:59N 36°45' W 076°18'3 3.6
2018-May-05 17:06N 36°43' W 076°15'0 2.3
2018-May-05 16:58N 36°43' W 076°14'  
2018-Apr-30 15:53N 34°56' W 076°39'3 6.0
2018-Apr-30 15:26N 34°54' W 076°41'3 6.8
2018-Apr-30 15:00N 34°51' W 076°41'3 4.9
2018-Apr-30 14:29N 34°48' W 076°41'0 0.1
2018-Apr-30 14:00N 34°48' W 076°41'2 5.0
2018-Apr-30 13:30N 34°46' W 076°41'  
Track history (hours):
 
Tides and Currents Weather Stations Pressure Air Temp Water Temp Dewpoint Dewpoint Depression Visibility Wind Speed Wind Dir Waves Ship Positions

A Run

Owner: Calore, Neil M, Green Cove Springs, FL. More information available from US FCC via Universal Licensing System and Coast Guard Vessel Documentation Center.

Last reported at 2018-May-10 13:25 UTC. Time now 2018-Jul-20 16:28 UTC.
Position N 39°00' W 076°23'.
Warning: this ship's position is months out of date.

Length 10 m.

Type: Sailing vessel. MMSI: 367642050.

Date/timePositionNaut miles runAvg speedWind from/ knotsBaromVisibWave heightAir tempDewpointWater temp
2018-May-10 13:25N 39°00' W 076°23'3 5.8
2018-May-10 12:57N 38°58' W 076°24'2 5.3
2018-May-10 12:29N 38°55' W 076°25'6 0.4
2018-May-09 23:10N 38°53' W 076°32'0 0.0
2018-May-09 22:55N 38°53' W 076°32'0 0.4
2018-May-09 22:30N 38°53' W 076°32'2 4.6
2018-May-09 22:00N 38°52' W 076°29'3 5.5
2018-May-09 21:30N 38°50' W 076°27'45 5.8
2018-May-09 13:45N 38°06' W 076°15'2 6.3
2018-May-09 13:30N 38°05' W 076°15'5 6.1
2018-May-09 12:40N 37°60' W 076°13'1 6.3
2018-May-09 12:30N 37°59' W 076°13'  
2018-May-05 19:19N 36°52' W 076°20'2 6.7
2018-May-05 18:59N 36°51' W 076°18'3 6.2
2018-May-05 18:30N 36°48' W 076°18'3 4.9
2018-May-05 17:59N 36°45' W 076°18'3 3.6
2018-May-05 17:06N 36°43' W 076°15'0 2.3
2018-May-05 16:58N 36°43' W 076°14'  
2018-Apr-30 15:53N 34°56' W 076°39'3 6.0
2018-Apr-30 15:26N 34°54' W 076°41'3 6.8
2018-Apr-30 15:00N 34°51' W 076°41'3 4.9
2018-Apr-30 14:29N 34°48' W 076°41'0 0.1
2018-Apr-30 14:00N 34°48' W 076°41'2 5.0
2018-Apr-30 13:30N 34°46' W 076°41'  

Dump ship's entire track history